Time;durP1;ratioP1;P1;durP2;ratioP2;P2;SDS_P1;SDS_P2;PMS_P1;PMS_P2;Temp;Humidity;BMP_temperature;BMP_pressure;BME280_temperature;BME280_humidity;BME280_pressure;Samples;Min_cycle;Max_cycle;Signal;HPM_P1;HPM_P2
2022/06/12 00:00:28;;;;;;;;;33.75;30.00;;;;;;;;5081906;27;8783;-59
2022/06/12 00:03:14;;;;;;;;;32.75;27.75;;;;;;;;5115888;27;8901;-58
2022/06/12 00:06:00;;;;;;;;;38.50;30.00;;;;;;;;5116597;27;8775;-59
2022/06/12 00:08:48;;;;;;;;;34.50;28.75;;;;;;;;5116988;27;8763;-58
2022/06/12 00:11:34;;;;;;;;;34.50;30.75;;;;;;;;5110644;27;8777;-58
2022/06/12 00:14:19;;;;;;;;;36.50;31.25;;;;;;;;5117233;27;8799;-57
2022/06/12 00:17:05;;;;;;;;;37.75;31.00;;;;;;;;5114330;27;8771;-57
2022/06/12 00:19:51;;;;;;;;;37.50;30.75;;;;;;;;5111041;27;8778;-57
2022/06/12 00:22:48;;;;;;;;;37.00;32.00;;;;;;;;5116610;27;8763;-58
2022/06/12 00:25:34;;;;;;;;;36.25;32.75;;;;;;;;5117544;27;8739;-57
2022/06/12 00:28:18;;;;;;;;;44.50;32.75;;;;;;;;5108593;27;8782;-57
2022/06/12 00:31:16;;;;;;;;;36.50;32.50;;;;;;;;5117565;27;8779;-58
2022/06/12 00:34:04;;;;;;;;;39.75;33.00;;;;;;;;5114085;27;8798;-57
2022/06/12 00:36:49;;;;;;;;;45.75;33.50;;;;;;;;5119007;27;8763;-57
2022/06/12 00:39:41;;;;;;;;;42.50;35.00;;;;;;;;5122632;27;8797;-57
2022/06/12 00:42:36;;;;;;;;;37.50;34.25;;;;;;;;5121539;27;8772;-58
2022/06/12 00:45:27;;;;;;;;;43.50;35.00;;;;;;;;5117850;27;8787;-57
2022/06/12 00:48:14;;;;;;;;;45.25;35.25;;;;;;;;5119210;27;8783;-58
2022/06/12 00:51:06;;;;;;;;;39.00;30.75;;;;;;;;5123017;27;8802;-58
2022/06/12 00:53:54;;;;;;;;;45.00;35.00;;;;;;;;5119461;27;9554;-58
2022/06/12 00:56:47;;;;;;;;;41.25;32.25;;;;;;;;5115938;28;8802;-58
2022/06/12 00:59:54;;;;;;;;;43.25;34.00;;;;;;;;5116528;28;8787;-57
2022/06/12 01:02:42;;;;;;;;;47.00;39.25;;;;;;;;5100762;28;8784;-57
2022/06/12 01:08:36;;;;;;;;;61.50;46.00;;;;;;;;5120647;27;8779;-58
2022/06/12 01:11:23;;;;;;;;;61.50;47.75;;;;;;;;5120767;27;8787;-58
2022/06/12 01:14:16;;;;;;;;;65.50;50.25;;;;;;;;5117837;27;8806;-58
2022/06/12 01:17:01;;;;;;;;;61.75;47.25;;;;;;;;5126968;27;8763;-58
2022/06/12 01:19:51;;;;;;;;;55.25;43.50;;;;;;;;5126408;27;8767;-57
2022/06/12 01:22:54;;;;;;;;;52.00;40.00;;;;;;;;5126480;27;8771;-58
2022/06/12 01:26:05;;;;;;;;;47.00;39.50;;;;;;;;5123391;27;8783;-58
2022/06/12 01:29:19;;;;;;;;;46.25;36.75;;;;;;;;5122731;27;9522;-58
2022/06/12 01:32:07;;;;;;;;;43.25;34.50;;;;;;;;5126232;27;9550;-57
2022/06/12 01:35:20;;;;;;;;;42.25;35.75;;;;;;;;5121368;27;8803;-58
2022/06/12 01:38:05;;;;;;;;;40.50;35.50;;;;;;;;5126857;27;8753;-58
2022/06/12 01:40:52;;;;;;;;;43.50;37.00;;;;;;;;5128100;27;9573;-58
2022/06/12 01:43:37;;;;;;;;;47.00;37.75;;;;;;;;5124006;27;8791;-57
2022/06/12 01:46:28;;;;;;;;;41.00;34.75;;;;;;;;5126661;27;8804;-57
2022/06/12 01:49:31;;;;;;;;;41.50;35.00;;;;;;;;5121083;27;8806;-58
2022/06/12 01:52:22;;;;;;;;;39.50;33.00;;;;;;;;5127686;27;9556;-59
2022/06/12 01:55:19;;;;;;;;;38.25;33.50;;;;;;;;5122007;27;8925;-58
2022/06/12 01:58:11;;;;;;;;;38.50;32.00;;;;;;;;5127499;27;8777;-58
2022/06/12 02:01:05;;;;;;;;;45.25;34.00;;;;;;;;5108124;27;8889;-58
2022/06/12 02:04:01;;;;;;;;;43.00;35.25;;;;;;;;5126276;27;8779;-57
2022/06/12 02:06:53;;;;;;;;;49.50;39.50;;;;;;;;5126262;27;8771;-58
2022/06/12 02:09:45;;;;;;;;;60.75;46.25;;;;;;;;5122878;27;8810;-57
2022/06/12 02:15:56;;;;;;;;;65.25;51.50;;;;;;;;5119264;27;8794;-59
2022/06/12 02:18:50;;;;;;;;;66.00;50.75;;;;;;;;5118859;27;8799;-57
2022/06/12 02:21:54;;;;;;;;;63.50;48.75;;;;;;;;5119308;27;8782;-58
2022/06/12 02:24:44;;;;;;;;;59.50;46.75;;;;;;;;5119872;27;8791;-57
2022/06/12 02:27:34;;;;;;;;;56.25;46.00;;;;;;;;5119865;27;8779;-58
2022/06/12 02:30:30;;;;;;;;;51.50;41.25;;;;;;;;5119240;27;8787;-57
2022/06/12 02:33:28;;;;;;;;;48.00;40.00;;;;;;;;5119462;27;8779;-57
2022/06/12 02:36:25;;;;;;;;;47.75;38.25;;;;;;;;5118772;27;8779;-58
2022/06/12 02:39:09;;;;;;;;;44.00;36.50;;;;;;;;5119214;27;8771;-58
2022/06/12 02:42:04;;;;;;;;;47.25;35.50;;;;;;;;5118763;27;9530;-57
2022/06/12 02:44:54;;;;;;;;;46.00;36.50;;;;;;;;5119562;27;8783;-57
2022/06/12 02:47:40;;;;;;;;;41.00;33.00;;;;;;;;5118476;27;8783;-56
2022/06/12 02:50:26;;;;;;;;;45.00;37.00;;;;;;;;5125208;27;8787;-58
2022/06/12 02:53:20;;;;;;;;;41.75;34.50;;;;;;;;5123199;27;8790;-55
2022/06/12 02:56:17;;;;;;;;;47.25;36.50;;;;;;;;5115534;27;8818;-58
2022/06/12 02:59:21;;;;;;;;;40.75;35.00;;;;;;;;5122241;27;8801;-57
2022/06/12 03:02:19;;;;;;;;;45.75;35.75;;;;;;;;5122050;27;8787;-55
2022/06/12 03:05:06;;;;;;;;;45.00;34.75;;;;;;;;5118482;27;8814;-58
2022/06/12 03:07:54;;;;;;;;;40.50;35.50;;;;;;;;5118209;27;8771;-57
2022/06/12 03:10:41;;;;;;;;;43.00;35.25;;;;;;;;5117532;27;9642;-58
2022/06/12 03:13:28;;;;;;;;;35.75;30.25;;;;;;;;5117780;27;8807;-57
2022/06/12 03:16:16;;;;;;;;;42.50;34.75;;;;;;;;5098317;27;8791;-57
2022/06/12 03:19:10;;;;;;;;;41.75;35.00;;;;;;;;5123256;27;8799;-57
2022/06/12 03:22:09;;;;;;;;;36.50;30.75;;;;;;;;5115847;27;8779;-56
2022/06/12 03:25:17;;;;;;;;;37.50;32.25;;;;;;;;5122071;27;8797;-58
2022/06/12 03:28:12;;;;;;;;;35.50;31.50;;;;;;;;5120073;27;8794;-58
2022/06/12 03:31:06;;;;;;;;;40.00;33.00;;;;;;;;5120610;27;8789;-58
2022/06/12 03:34:10;;;;;;;;;36.75;29.75;;;;;;;;5116325;27;8779;-55
2022/06/12 03:37:06;;;;;;;;;34.50;30.00;;;;;;;;5116349;27;8755;-56
2022/06/12 03:40:03;;;;;;;;;33.00;28.25;;;;;;;;5117138;27;8759;-55
2022/06/12 03:42:57;;;;;;;;;36.50;28.75;;;;;;;;5117281;27;8763;-55
2022/06/12 03:46:04;;;;;;;;;36.00;31.25;;;;;;;;5117236;27;8778;-55
2022/06/12 03:48:48;;;;;;;;;35.75;31.00;;;;;;;;5117346;27;8779;-56
2022/06/12 03:51:42;;;;;;;;;37.00;32.50;;;;;;;;5114878;27;8775;-56
2022/06/12 03:54:42;;;;;;;;;41.00;35.00;;;;;;;;5116463;27;8810;-58
2022/06/12 04:00:39;;;;;;;;;45.25;35.25;;;;;;;;5112519;27;8779;-57
2022/06/12 04:03:31;;;;;;;;;42.75;33.75;;;;;;;;5116335;27;8794;-58
2022/06/12 04:06:23;;;;;;;;;45.00;35.50;;;;;;;;5116456;27;8790;-56
2022/06/12 04:09:14;;;;;;;;;45.50;34.50;;;;;;;;5118056;27;8790;-59
2022/06/12 04:12:01;;;;;;;;;50.00;41.25;;;;;;;;5119600;27;8786;-57
2022/06/12 04:14:48;;;;;;;;;53.75;43.75;;;;;;;;5112279;27;8791;-55
2022/06/12 04:17:34;;;;;;;;;51.50;41.25;;;;;;;;5117277;27;8783;-59
2022/06/12 04:20:25;;;;;;;;;51.00;41.00;;;;;;;;5117125;27;8770;-58
2022/06/12 04:23:31;;;;;;;;;47.00;40.25;;;;;;;;5117362;27;8782;-58
2022/06/12 04:26:21;;;;;;;;;48.50;39.00;;;;;;;;5117534;27;8783;-56
2022/06/12 04:29:27;;;;;;;;;48.75;38.25;;;;;;;;5117580;27;8795;-58
2022/06/12 04:32:11;;;;;;;;;38.50;32.75;;;;;;;;5112440;27;8773;-58
2022/06/12 04:34:56;;;;;;;;;44.75;36.25;;;;;;;;5117114;27;8849;-57
2022/06/12 04:37:42;;;;;;;;;45.50;35.00;;;;;;;;5117572;27;9692;-58
2022/06/12 04:40:41;;;;;;;;;52.25;43.50;;;;;;;;5117333;27;8779;-58
2022/06/12 04:43:28;;;;;;;;;51.75;38.50;;;;;;;;5117234;27;8771;-59
2022/06/12 04:46:13;;;;;;;;;53.75;41.50;;;;;;;;5117382;27;8783;-58
2022/06/12 04:48:59;;;;;;;;;48.25;36.25;;;;;;;;5116854;27;8881;-58
2022/06/12 04:51:45;;;;;;;;;47.75;38.50;;;;;;;;5115304;27;8763;-57
2022/06/12 04:54:31;;;;;;;;;43.50;35.50;;;;;;;;5112644;28;8811;-58
2022/06/12 04:57:27;;;;;;;;;46.25;37.25;;;;;;;;5103454;28;8775;-57
2022/06/12 05:00:12;;;;;;;;;46.25;38.25;;;;;;;;5111659;27;8777;-57
2022/06/12 05:03:03;;;;;;;;;45.50;37.00;;;;;;;;5109649;28;8774;-58
2022/06/12 05:05:51;;;;;;;;;47.50;38.25;;;;;;;;5117188;28;9606;-58
2022/06/12 05:08:47;;;;;;;;;46.25;38.00;;;;;;;;5116972;28;8790;-55
2022/06/12 05:11:42;;;;;;;;;46.25;35.75;;;;;;;;5117191;28;8782;-55
2022/06/12 05:14:26;;;;;;;;;44.50;36.00;;;;;;;;5116764;28;8814;-56
2022/06/12 05:17:14;;;;;;;;;51.75;43.00;;;;;;;;5117049;28;8779;-56
2022/06/12 05:19:59;;;;;;;;;50.00;40.75;;;;;;;;5116977;28;8787;-56
2022/06/12 05:22:43;;;;;;;;;45.25;36.50;;;;;;;;5117202;28;9565;-56
2022/06/12 05:25:30;;;;;;;;;44.25;35.00;;;;;;;;5116803;28;8799;-56
2022/06/12 05:28:17;;;;;;;;;43.00;33.75;;;;;;;;5116721;28;8790;-56
2022/06/12 05:31:13;;;;;;;;;39.00;34.25;;;;;;;;5116966;28;8775;-55
2022/06/12 05:33:58;;;;;;;;;43.75;34.75;;;;;;;;5112277;27;8807;-57
2022/06/12 05:36:46;;;;;;;;;56.00;45.25;;;;;;;;5112505;28;8799;-57
2022/06/12 05:39:34;;;;;;;;;51.75;40.25;;;;;;;;5116971;28;8794;-57
2022/06/12 05:42:22;;;;;;;;;43.00;34.75;;;;;;;;5120096;27;8790;-56
2022/06/12 05:45:08;;;;;;;;;48.00;36.25;;;;;;;;5116574;28;8802;-56
2022/06/12 05:48:15;;;;;;;;;37.75;32.75;;;;;;;;5116639;28;8787;-54
2022/06/12 05:51:03;;;;;;;;;36.00;30.50;;;;;;;;5116804;28;8818;-55
2022/06/12 05:53:47;;;;;;;;;37.50;33.25;;;;;;;;5117726;27;8819;-56
2022/06/12 05:56:34;;;;;;;;;39.50;30.00;;;;;;;;5120096;27;8814;-57
2022/06/12 05:59:22;;;;;;;;;34.75;29.75;;;;;;;;5120494;27;8799;-58
2022/06/12 06:02:10;;;;;;;;;33.75;31.75;;;;;;;;5120201;27;8794;-57
2022/06/12 06:04:56;;;;;;;;;41.00;32.25;;;;;;;;5120140;27;8783;-56
2022/06/12 06:07:41;;;;;;;;;39.25;32.50;;;;;;;;5120261;27;8775;-57
2022/06/12 06:10:30;;;;;;;;;46.00;35.25;;;;;;;;5120390;27;8799;-56
2022/06/12 06:13:34;;;;;;;;;45.25;37.50;;;;;;;;5120278;27;8799;-57
2022/06/12 06:16:30;;;;;;;;;50.25;38.75;;;;;;;;5120102;27;8794;-55
2022/06/12 06:19:34;;;;;;;;;47.50;39.25;;;;;;;;5120034;27;8782;-57
2022/06/12 06:22:20;;;;;;;;;54.00;43.75;;;;;;;;5120098;27;8767;-55
2022/06/12 06:25:07;;;;;;;;;52.25;43.25;;;;;;;;5119969;27;8893;-55
2022/06/12 06:27:51;;;;;;;;;49.75;40.50;;;;;;;;5104463;27;8767;-55
2022/06/12 06:30:38;;;;;;;;;47.00;38.25;;;;;;;;5119294;27;8782;-55
2022/06/12 06:33:24;;;;;;;;;52.25;41.50;;;;;;;;5119119;27;8775;-56
2022/06/12 06:36:10;;;;;;;;;58.00;45.25;;;;;;;;5119047;27;8798;-54
2022/06/12 06:39:06;;;;;;;;;61.25;48.00;;;;;;;;5119279;27;8775;-56
2022/06/12 06:41:52;;;;;;;;;51.75;42.00;;;;;;;;5119087;27;8790;-56
2022/06/12 06:47:42;;;;;;;;;48.25;39.00;;;;;;;;5119499;27;8787;-56
2022/06/12 06:50:28;;;;;;;;;53.25;43.50;;;;;;;;5119325;27;8779;-56
2022/06/12 06:56:06;;;;;;;;;43.00;36.75;;;;;;;;5075601;28;9594;-56
2022/06/12 06:58:51;;;;;;;;;45.50;35.75;;;;;;;;5076288;28;8794;-57
2022/06/12 07:01:37;;;;;;;;;40.00;33.25;;;;;;;;5076141;28;8791;-57
2022/06/12 07:04:22;;;;;;;;;36.00;32.25;;;;;;;;5075278;28;8771;-55
2022/06/12 07:07:09;;;;;;;;;46.50;38.75;;;;;;;;5075487;28;8807;-56
2022/06/12 07:09:54;;;;;;;;;45.75;38.00;;;;;;;;5095631;28;8765;-56
2022/06/12 07:12:39;;;;;;;;;40.00;33.00;;;;;;;;5081532;28;8772;-56
2022/06/12 07:15:24;;;;;;;;;34.00;30.50;;;;;;;;5095796;28;8808;-55
2022/06/12 07:18:09;;;;;;;;;30.00;29.75;;;;;;;;5081057;28;8781;-57
2022/06/12 07:21:01;;;;;;;;;36.75;32.00;;;;;;;;5085725;28;8805;-56
2022/06/12 07:23:46;;;;;;;;;34.25;30.75;;;;;;;;5078510;28;8797;-55
2022/06/12 07:26:33;;;;;;;;;39.75;33.25;;;;;;;;5072631;28;8799;-55
2022/06/12 07:29:21;;;;;;;;;33.75;28.50;;;;;;;;5075830;28;8810;-56
2022/06/12 07:32:05;;;;;;;;;38.00;31.75;;;;;;;;5077527;27;8807;-56
2022/06/12 07:34:50;;;;;;;;;37.25;32.50;;;;;;;;5116473;27;8778;-57
2022/06/12 07:37:36;;;;;;;;;58.75;45.75;;;;;;;;5115648;27;8791;-56
2022/06/12 07:40:28;;;;;;;;;43.50;35.75;;;;;;;;5114313;27;8881;-57
2022/06/12 07:43:16;;;;;;;;;33.25;28.50;;;;;;;;5118442;27;9569;-57
2022/06/12 07:46:01;;;;;;;;;36.75;32.00;;;;;;;;5118422;27;8803;-57
2022/06/12 07:48:47;;;;;;;;;32.50;28.75;;;;;;;;5118367;27;8763;-54
2022/06/12 07:51:43;;;;;;;;;40.50;32.25;;;;;;;;5118574;27;8767;-55
2022/06/12 07:54:33;;;;;;;;;25.75;24.00;;;;;;;;5116816;27;8798;-58
2022/06/12 07:57:18;;;;;;;;;31.75;26.75;;;;;;;;5103135;27;8782;-57
2022/06/12 08:00:08;;;;;;;;;27.75;26.75;;;;;;;;5118058;27;8751;-56
2022/06/12 08:02:55;;;;;;;;;31.75;27.50;;;;;;;;5118395;27;8786;-58
2022/06/12 08:05:51;;;;;;;;;31.00;27.25;;;;;;;;5104723;27;8802;-58
2022/06/12 08:08:35;;;;;;;;;35.25;30.00;;;;;;;;5117353;27;8759;-57
2022/06/12 08:11:21;;;;;;;;;31.75;26.00;;;;;;;;5117847;27;8795;-57
2022/06/12 08:14:05;;;;;;;;;34.25;30.25;;;;;;;;5118403;27;9557;-58
2022/06/12 08:16:51;;;;;;;;;31.75;28.75;;;;;;;;5117142;27;8799;-58
2022/06/12 08:22:38;;;;;;;;;26.75;26.00;;;;;;;;5117541;27;8775;-56
2022/06/12 08:25:23;;;;;;;;;30.75;28.00;;;;;;;;5117825;27;8791;-57
2022/06/12 08:28:10;;;;;;;;;33.75;27.25;;;;;;;;5117634;27;8786;-57
2022/06/12 08:31:22;;;;;;;;;33.00;30.00;;;;;;;;5117291;27;8779;-57
2022/06/12 08:34:13;;;;;;;;;23.00;22.00;;;;;;;;5117702;27;8779;-57
2022/06/12 08:37:06;;;;;;;;;25.75;23.00;;;;;;;;5117374;27;8775;-57
2022/06/12 08:39:53;;;;;;;;;25.50;20.25;;;;;;;;5117560;27;9626;-58
2022/06/12 08:43:08;;;;;;;;;23.75;21.50;;;;;;;;5108293;27;8821;-58
2022/06/12 08:45:57;;;;;;;;;24.75;21.75;;;;;;;;5104168;27;8795;-56
2022/06/12 08:48:53;;;;;;;;;23.75;22.25;;;;;;;;5110714;27;8790;-57
2022/06/12 08:52:35;;;;;;;;;27.25;25.50;;;;;;;;5117174;27;8787;-57
2022/06/12 08:55:22;;;;;;;;;31.25;26.75;;;;;;;;5090076;28;8819;-59
2022/06/12 08:58:20;;;;;;;;;38.50;33.75;;;;;;;;5117441;28;8795;-56
2022/06/12 09:01:25;;;;;;;;;34.50;31.00;;;;;;;;5117164;28;8794;-56
2022/06/12 09:04:23;;;;;;;;;41.50;32.00;;;;;;;;5116990;28;8921;-57
2022/06/12 09:07:14;;;;;;;;;41.25;35.00;;;;;;;;5117187;28;8783;-58
2022/06/12 09:10:05;;;;;;;;;37.75;32.25;;;;;;;;5116979;28;8783;-57
2022/06/12 09:13:07;;;;;;;;;47.75;39.25;;;;;;;;5116924;28;8827;-58
2022/06/12 09:16:10;;;;;;;;;51.75;36.00;;;;;;;;5116954;28;9519;-57
2022/06/12 09:18:54;;;;;;;;;39.50;34.50;;;;;;;;5117265;28;8803;-58
2022/06/12 09:21:59;;;;;;;;;44.75;37.75;;;;;;;;5116807;28;8791;-57
2022/06/12 09:25:07;;;;;;;;;46.50;38.50;;;;;;;;5117155;28;8795;-58
2022/06/12 09:27:58;;;;;;;;;52.00;44.00;;;;;;;;5118004;27;8795;-59
2022/06/12 09:31:00;;;;;;;;;47.25;37.75;;;;;;;;5120943;27;8795;-58
2022/06/12 09:33:55;;;;;;;;;42.25;36.75;;;;;;;;5120870;27;8814;-58
2022/06/12 09:36:56;;;;;;;;;50.25;42.00;;;;;;;;5120723;27;8791;-58
2022/06/12 09:39:56;;;;;;;;;47.25;38.50;;;;;;;;5121038;27;9593;-58
2022/06/12 09:43:01;;;;;;;;;51.00;40.50;;;;;;;;5120865;27;8787;-57
2022/06/12 09:49:04;;;;;;;;;43.50;36.75;;;;;;;;5038871;28;9609;-59
2022/06/12 09:51:51;;;;;;;;;45.00;36.75;;;;;;;;5053680;28;8805;-58
2022/06/12 09:54:56;;;;;;;;;43.00;36.25;;;;;;;;5056895;28;8813;-58
2022/06/12 09:57:56;;;;;;;;;49.00;39.00;;;;;;;;5056557;28;8832;-58
2022/06/12 10:00:41;;;;;;;;;48.50;38.75;;;;;;;;5041442;28;8811;-58
2022/06/12 10:03:33;;;;;;;;;48.50;39.50;;;;;;;;5052505;28;9453;-59
2022/06/12 10:06:26;;;;;;;;;39.00;33.75;;;;;;;;5056863;28;8809;-58
2022/06/12 10:09:29;;;;;;;;;43.00;34.00;;;;;;;;5056732;28;8802;-57
2022/06/12 10:12:28;;;;;;;;;37.50;32.75;;;;;;;;5055747;28;8802;-57
2022/06/12 10:15:39;;;;;;;;;29.00;26.50;;;;;;;;5050597;28;8821;-57
2022/06/12 10:18:40;;;;;;;;;31.00;27.50;;;;;;;;5056501;28;8806;-58
2022/06/12 10:21:25;;;;;;;;;35.00;30.00;;;;;;;;5056040;28;8793;-57
2022/06/12 10:24:20;;;;;;;;;31.75;29.25;;;;;;;;5056552;28;8730;-58
2022/06/12 10:27:09;;;;;;;;;23.00;22.00;;;;;;;;5107764;27;8790;-59
2022/06/12 10:30:16;;;;;;;;;22.00;22.00;;;;;;;;5119588;27;8901;-58
2022/06/12 10:33:16;;;;;;;;;20.25;17.00;;;;;;;;5119044;27;9590;-57
2022/06/12 10:36:05;;;;;;;;;16.75;16.25;;;;;;;;5119338;27;8791;-59
2022/06/12 10:38:49;;;;;;;;;20.50;17.00;;;;;;;;5118798;27;9610;-59
2022/06/12 10:42:00;;;;;;;;;21.00;19.25;;;;;;;;5118840;27;9677;-58
2022/06/12 10:44:52;;;;;;;;;19.75;14.75;;;;;;;;5118876;27;8807;-57
2022/06/12 10:47:55;;;;;;;;;18.75;17.75;;;;;;;;5118816;27;8852;-58
2022/06/12 10:50:49;;;;;;;;;25.25;22.75;;;;;;;;5119087;27;9551;-58
2022/06/12 10:53:34;;;;;;;;;29.75;24.00;;;;;;;;5118901;27;8810;-55
2022/06/12 10:56:42;;;;;;;;;22.50;19.50;;;;;;;;5121751;27;8807;-57
2022/06/12 10:59:42;;;;;;;;;23.50;20.50;;;;;;;;5125652;27;8810;-58
2022/06/12 11:02:49;;;;;;;;;16.50;14.75;;;;;;;;5118756;27;8778;-57
2022/06/12 11:05:51;;;;;;;;;23.75;22.75;;;;;;;;5118732;27;8779;-57
2022/06/12 11:08:41;;;;;;;;;21.75;19.25;;;;;;;;5118661;27;8771;-58
2022/06/12 11:11:44;;;;;;;;;19.00;16.25;;;;;;;;5119038;27;8791;-57
2022/06/12 11:14:51;;;;;;;;;19.50;16.25;;;;;;;;5118267;27;8822;-58
2022/06/12 11:18:17;;;;;;;;;19.50;17.00;;;;;;;;5115443;27;8786;-58
2022/06/12 11:21:08;;;;;;;;;17.00;16.00;;;;;;;;5118694;27;8771;-58
2022/06/12 11:24:12;;;;;;;;;23.25;19.00;;;;;;;;5118427;27;8767;-59
2022/06/12 11:27:04;;;;;;;;;21.00;17.50;;;;;;;;5118834;27;8921;-57
2022/06/12 11:30:21;;;;;;;;;22.75;18.25;;;;;;;;5118602;27;9542;-58
2022/06/12 11:33:09;;;;;;;;;15.00;12.50;;;;;;;;5118090;27;8790;-57
2022/06/12 11:36:10;;;;;;;;;16.00;15.00;;;;;;;;5118339;27;8791;-57
2022/06/12 11:39:13;;;;;;;;;18.50;17.25;;;;;;;;5118339;27;8810;-58
2022/06/12 11:42:18;;;;;;;;;17.75;15.75;;;;;;;;5118137;27;8782;-58
2022/06/12 11:45:05;;;;;;;;;17.75;15.00;;;;;;;;5117639;27;8795;-59
2022/06/12 11:48:12;;;;;;;;;16.75;13.75;;;;;;;;5118134;27;8794;-58
2022/06/12 11:51:01;;;;;;;;;16.75;14.75;;;;;;;;5117355;27;8790;-59
2022/06/12 11:53:54;;;;;;;;;15.25;14.00;;;;;;;;5117221;27;8783;-58
2022/06/12 11:56:56;;;;;;;;;22.00;19.00;;;;;;;;5117335;27;8818;-58
2022/06/12 11:59:47;;;;;;;;;18.25;16.75;;;;;;;;5117721;27;8802;-58
2022/06/12 12:02:50;;;;;;;;;17.25;15.00;;;;;;;;5117351;27;8787;-58
2022/06/12 12:05:45;;;;;;;;;18.00;15.75;;;;;;;;5117534;27;8787;-57
2022/06/12 12:08:50;;;;;;;;;14.25;13.00;;;;;;;;5117332;27;8783;-58
2022/06/12 12:11:39;;;;;;;;;14.25;13.00;;;;;;;;5117728;27;8787;-58
2022/06/12 12:14:25;;;;;;;;;14.00;12.25;;;;;;;;5117203;27;8798;-58
2022/06/12 12:17:21;;;;;;;;;11.50;11.00;;;;;;;;5117945;27;8798;-58
2022/06/12 12:20:20;;;;;;;;;14.00;11.00;;;;;;;;5117654;27;8810;-58
2022/06/12 12:23:13;;;;;;;;;20.25;16.50;;;;;;;;5101742;27;9550;-58
2022/06/12 12:26:20;;;;;;;;;13.00;13.00;;;;;;;;5117060;27;8779;-57
2022/06/12 12:29:18;;;;;;;;;17.50;14.25;;;;;;;;5117237;27;8785;-58
2022/06/12 12:32:05;;;;;;;;;15.50;14.00;;;;;;;;5117408;27;8765;-58
2022/06/12 12:34:54;;;;;;;;;20.25;18.75;;;;;;;;5115476;27;9545;-59
2022/06/12 12:44:02;;;;;;;;;15.00;12.75;;;;;;;;5117307;27;8776;-58
2022/06/12 12:46:52;;;;;;;;;15.75;14.50;;;;;;;;5116660;27;8777;-57
2022/06/12 12:49:39;;;;;;;;;14.75;14.75;;;;;;;;5117610;27;8788;-58
2022/06/12 12:52:23;;;;;;;;;13.25;13.25;;;;;;;;5116956;27;8788;-58
2022/06/12 12:55:28;;;;;;;;;14.00;13.00;;;;;;;;5116988;28;8816;-57
2022/06/12 12:58:17;;;;;;;;;16.00;11.50;;;;;;;;5117243;28;9579;-58
2022/06/12 13:01:10;;;;;;;;;14.50;13.00;;;;;;;;5117380;28;8773;-58
2022/06/12 13:04:18;;;;;;;;;9.00;7.50;;;;;;;;5121041;27;8761;-57
2022/06/12 13:10:11;;;;;;;;;12.00;10.00;;;;;;;;5098509;28;8935;-57
2022/06/12 13:13:33;;;;;;;;;9.75;9.75;;;;;;;;5098381;28;8785;-58
2022/06/12 13:16:29;;;;;;;;;12.00;10.75;;;;;;;;5057636;28;8793;-57
2022/06/12 13:19:35;;;;;;;;;15.25;10.75;;;;;;;;5098509;28;8781;-57
2022/06/12 13:22:25;;;;;;;;;15.00;11.50;;;;;;;;5098461;28;8777;-58
2022/06/12 13:25:32;;;;;;;;;13.50;11.50;;;;;;;;5098450;28;8808;-58
2022/06/12 13:28:20;;;;;;;;;12.75;11.50;;;;;;;;5098097;28;8781;-58
2022/06/12 13:31:34;;;;;;;;;15.00;13.75;;;;;;;;5098360;28;8819;-59
2022/06/12 13:34:26;;;;;;;;;12.75;9.75;;;;;;;;5088229;28;8799;-57
2022/06/12 13:37:22;;;;;;;;;11.75;10.00;;;;;;;;5077558;28;8787;-57
2022/06/12 13:40:24;;;;;;;;;12.50;10.75;;;;;;;;5077961;28;8803;-57
2022/06/12 13:43:13;;;;;;;;;16.25;12.75;;;;;;;;5077800;28;8822;-58
2022/06/12 13:46:14;;;;;;;;;12.00;10.25;;;;;;;;5079437;27;8807;-58
2022/06/12 13:49:02;;;;;;;;;12.75;8.50;;;;;;;;5107992;27;8815;-58
2022/06/12 13:51:52;;;;;;;;;12.00;9.50;;;;;;;;5104852;27;8960;-58
2022/06/12 13:54:43;;;;;;;;;16.00;11.75;;;;;;;;5120652;27;8790;-56
2022/06/12 13:57:38;;;;;;;;;12.00;8.00;;;;;;;;5099951;28;8781;-57
2022/06/12 14:00:31;;;;;;;;;11.00;10.25;;;;;;;;5100188;28;8821;-58
2022/06/12 14:03:18;;;;;;;;;13.25;9.25;;;;;;;;5099810;28;8769;-56
2022/06/12 14:06:14;;;;;;;;;14.50;8.75;;;;;;;;5099501;28;8781;-58
2022/06/12 14:09:34;;;;;;;;;10.00;10.00;;;;;;;;5120431;27;8774;-59
2022/06/12 14:12:43;;;;;;;;;8.75;8.75;;;;;;;;5060973;27;8790;-57
2022/06/12 14:15:34;;;;;;;;;11.50;11.00;;;;;;;;5119060;27;8798;-57
2022/06/12 14:18:28;;;;;;;;;11.00;10.50;;;;;;;;5119906;27;9566;-58
2022/06/12 14:21:35;;;;;;;;;11.00;11.00;;;;;;;;5119995;27;8771;-58
2022/06/12 14:24:24;;;;;;;;;13.25;11.00;;;;;;;;5119606;27;8779;-58
2022/06/12 14:27:31;;;;;;;;;18.75;14.00;;;;;;;;5120042;27;8767;-57
2022/06/12 14:30:35;;;;;;;;;11.75;9.50;;;;;;;;5119727;27;8901;-57
2022/06/12 14:33:40;;;;;;;;;13.25;11.50;;;;;;;;5119799;27;8858;-57
2022/06/12 14:36:30;;;;;;;;;12.75;9.75;;;;;;;;5119846;27;8802;-57
2022/06/12 14:39:30;;;;;;;;;11.50;10.00;;;;;;;;5119731;27;8771;-58
2022/06/12 14:42:17;;;;;;;;;12.00;11.50;;;;;;;;5119758;27;8775;-58
2022/06/12 14:45:06;;;;;;;;;13.25;11.00;;;;;;;;5119772;27;8786;-58
2022/06/12 14:47:50;;;;;;;;;9.75;9.00;;;;;;;;5119295;27;8775;-58
2022/06/12 14:50:35;;;;;;;;;15.75;11.25;;;;;;;;5119606;27;8767;-57
2022/06/12 14:53:20;;;;;;;;;11.75;9.75;;;;;;;;5119546;27;8885;-56
2022/06/12 14:56:13;;;;;;;;;12.50;12.50;;;;;;;;5124047;27;8739;-58
2022/06/12 14:58:59;;;;;;;;;11.00;11.00;;;;;;;;5119482;27;8787;-56
2022/06/12 15:01:45;;;;;;;;;14.50;12.00;;;;;;;;5124889;27;8771;-57
2022/06/12 15:04:29;;;;;;;;;16.00;12.25;;;;;;;;5123436;27;8775;-58
2022/06/12 15:07:17;;;;;;;;;12.75;11.50;;;;;;;;5118928;27;8759;-57
2022/06/12 15:10:03;;;;;;;;;13.75;12.00;;;;;;;;5119164;27;8779;-57
2022/06/12 15:12:50;;;;;;;;;12.50;12.00;;;;;;;;5119111;27;8766;-58
2022/06/12 15:15:34;;;;;;;;;13.50;13.25;;;;;;;;5119347;27;8806;-58
2022/06/12 15:18:23;;;;;;;;;11.50;11.50;;;;;;;;5119215;27;8775;-58
2022/06/12 15:21:13;;;;;;;;;11.75;10.25;;;;;;;;5119075;27;8795;-58
2022/06/12 15:23:57;;;;;;;;;11.25;8.75;;;;;;;;5118886;27;8771;-56
2022/06/12 15:29:49;;;;;;;;;14.50;12.75;;;;;;;;5118803;27;9495;-57
2022/06/12 15:32:36;;;;;;;;;13.00;11.75;;;;;;;;5118889;27;8767;-57
2022/06/12 15:35:20;;;;;;;;;15.25;13.50;;;;;;;;5118612;27;8806;-57
2022/06/12 15:38:05;;;;;;;;;12.25;9.75;;;;;;;;5118559;27;8775;-57
2022/06/12 15:40:50;;;;;;;;;8.75;8.75;;;;;;;;5118593;27;8767;-58
2022/06/12 15:43:52;;;;;;;;;11.00;11.00;;;;;;;;4994481;28;8802;-56
2022/06/12 15:46:39;;;;;;;;;12.75;10.25;;;;;;;;4995715;28;8806;-58
2022/06/12 15:49:23;;;;;;;;;14.00;10.50;;;;;;;;4995703;28;8801;-59
2022/06/12 15:52:08;;;;;;;;;9.50;9.00;;;;;;;;4995404;28;8959;-58
2022/06/12 15:54:52;;;;;;;;;12.25;10.00;;;;;;;;4995453;28;8821;-56
2022/06/12 15:57:38;;;;;;;;;10.50;10.00;;;;;;;;4995664;28;8806;-56
2022/06/12 16:00:23;;;;;;;;;11.75;10.00;;;;;;;;4995244;28;8941;-58
2022/06/12 16:05:54;;;;;;;;;10.75;8.25;;;;;;;;4937263;28;8812;-56
2022/06/12 16:08:38;;;;;;;;;11.50;10.00;;;;;;;;4937178;28;8816;-58
2022/06/12 16:11:23;;;;;;;;;11.00;8.00;;;;;;;;4936962;28;8816;-57
2022/06/12 16:14:09;;;;;;;;;12.75;10.50;;;;;;;;4936958;28;8796;-59
2022/06/12 16:16:54;;;;;;;;;14.25;10.00;;;;;;;;4943596;28;8832;-56
2022/06/12 16:19:40;;;;;;;;;15.25;11.50;;;;;;;;5034854;28;8796;-57
2022/06/12 16:22:27;;;;;;;;;9.00;8.00;;;;;;;;5034779;28;8812;-57
2022/06/12 16:25:12;;;;;;;;;11.25;8.75;;;;;;;;5034372;28;8808;-57
2022/06/12 16:27:58;;;;;;;;;14.00;10.75;;;;;;;;5034580;28;8792;-58
2022/06/12 16:30:44;;;;;;;;;9.00;7.25;;;;;;;;5034844;28;8792;-58
2022/06/12 16:33:28;;;;;;;;;10.00;8.25;;;;;;;;5034520;28;8812;-57
2022/06/12 16:36:14;;;;;;;;;9.25;7.00;;;;;;;;5034449;28;8804;-55
2022/06/12 16:39:01;;;;;;;;;7.75;7.75;;;;;;;;5034377;28;8800;-57
2022/06/12 16:41:50;;;;;;;;;8.75;7.50;;;;;;;;5034618;28;8777;-57
2022/06/12 16:44:58;;;;;;;;;9.00;6.75;;;;;;;;5138152;27;8784;-57
2022/06/12 16:47:55;;;;;;;;;6.50;5.75;;;;;;;;5138284;27;8798;-57
2022/06/12 16:50:56;;;;;;;;;8.25;6.00;;;;;;;;5137808;27;8781;-58
2022/06/12 16:53:41;;;;;;;;;4.25;3.75;;;;;;;;5138129;27;8733;-57
2022/06/12 16:56:31;;;;;;;;;6.50;5.25;;;;;;;;5136477;27;8800;-59
2022/06/12 16:59:29;;;;;;;;;8.50;6.00;;;;;;;;5137995;27;8780;-58
2022/06/12 17:02:16;;;;;;;;;6.50;5.00;;;;;;;;5138151;27;8793;-58
2022/06/12 17:05:07;;;;;;;;;7.75;5.75;;;;;;;;5137936;27;8808;-57
2022/06/12 17:08:01;;;;;;;;;6.00;5.00;;;;;;;;5125975;27;8799;-57
2022/06/12 17:10:45;;;;;;;;;7.00;5.00;;;;;;;;5137206;27;8796;-57
2022/06/12 17:13:32;;;;;;;;;6.50;5.50;;;;;;;;5137431;27;8761;-57
2022/06/12 17:16:28;;;;;;;;;11.25;6.75;;;;;;;;5137719;27;8789;-57
2022/06/12 17:22:17;;;;;;;;;5.50;3.75;;;;;;;;5137748;27;8764;-57
2022/06/12 17:25:02;;;;;;;;;10.00;8.75;;;;;;;;5137598;27;8839;-57
2022/06/12 17:27:49;;;;;;;;;7.75;7.75;;;;;;;;5137295;27;8781;-58
2022/06/12 17:30:34;;;;;;;;;8.25;6.00;;;;;;;;5136937;27;8773;-57
2022/06/12 17:33:21;;;;;;;;;7.50;6.50;;;;;;;;5137605;27;9380;-57
2022/06/12 17:36:06;;;;;;;;;7.50;7.50;;;;;;;;5137392;27;8828;-58
2022/06/12 17:38:53;;;;;;;;;8.00;8.00;;;;;;;;5137505;27;8780;-58
2022/06/12 17:41:37;;;;;;;;;6.75;6.00;;;;;;;;5136995;27;8780;-58